createdAt,value
2019-04-11T00:02:31.228Z,101317.51
2019-04-11T00:05:21.314Z,101326.03
2019-04-11T00:08:12.140Z,101326.39
2019-04-11T00:11:02.296Z,101323.79
2019-04-11T00:13:53.552Z,101325.97
2019-04-11T00:16:45.620Z,101331.95
2019-04-11T00:19:35.954Z,101330.19
2019-04-11T00:22:27.695Z,101333.23
2019-04-11T00:25:17.742Z,101337.45
2019-04-11T00:28:08.010Z,101339.61
2019-04-11T00:31:01.351Z,101337.02
2019-04-11T00:33:54.272Z,101334.44
2019-04-11T00:36:44.803Z,101343.39
2019-04-11T00:39:39.631Z,101343.81
2019-04-11T00:42:30.435Z,101341.62
2019-04-11T00:45:21.275Z,101342.47
2019-04-11T00:48:11.376Z,101345.45
2019-04-11T00:51:01.541Z,101346.31
2019-04-11T00:53:52.057Z,101343.67
2019-04-11T00:56:42.304Z,101345.34
2019-04-11T00:59:32.529Z,101347.89
2019-04-11T01:02:25.818Z,101345.70
2019-04-11T01:05:17.853Z,101343.41
2019-04-11T01:08:09.883Z,101342.52
2019-04-11T01:11:00.482Z,101345.07
2019-04-11T01:13:54.954Z,101344.70
2019-04-11T01:16:52.649Z,101355.83
2019-04-11T01:19:42.971Z,101355.08
2019-04-11T01:22:35.095Z,101358.39
2019-04-11T01:25:25.379Z,101353.95
2019-04-11T01:28:15.344Z,101355.27
2019-04-11T01:31:09.379Z,101358.11
2019-04-11T01:34:02.268Z,101360.54
2019-04-11T01:36:53.884Z,101352.81
2019-04-11T01:39:57.098Z,101362.70
2019-04-11T01:42:47.344Z,101362.72
2019-04-11T01:45:37.873Z,101359.16
2019-04-11T01:48:44.386Z,101361.86
2019-04-11T01:51:35.903Z,101369.17
2019-04-11T01:54:26.287Z,101362.44
2019-04-11T01:57:15.922Z,101373.84
2019-04-11T02:00:08.227Z,101374.43
2019-04-11T02:02:59.576Z,101366.20
2019-04-11T02:05:49.589Z,101372.16
2019-04-11T02:08:41.663Z,101377.25
2019-04-11T02:11:31.825Z,101375.31
2019-04-11T02:14:22.599Z,101379.08
2019-04-11T02:17:15.203Z,101383.84
2019-04-11T02:20:07.022Z,101385.08
2019-04-11T02:23:06.777Z,101389.52
2019-04-11T02:26:03.554Z,101390.48
2019-04-11T02:28:55.105Z,101391.69
2019-04-11T02:31:46.756Z,101395.81
2019-04-11T02:34:39.568Z,101389.66
2019-04-11T02:37:31.538Z,101396.04
2019-04-11T02:40:22.974Z,101394.75
2019-04-11T02:43:17.429Z,101391.68
2019-04-11T02:46:17.294Z,101394.34
2019-04-11T02:49:01.498Z,101400.23
2019-04-11T02:51:53.565Z,101405.20
2019-04-11T02:54:45.168Z,101400.99
2019-04-11T02:57:36.279Z,101398.91
2019-04-11T03:00:29.189Z,101404.06
2019-04-11T03:03:18.980Z,101404.59
2019-04-11T03:06:11.175Z,101408.41
2019-04-11T03:09:02.767Z,101410.47
2019-04-11T03:11:54.635Z,101409.69
2019-04-11T03:15:05.768Z,101408.85
2019-04-11T03:17:43.258Z,101419.16
2019-04-11T03:20:36.870Z,101416.10
2019-04-11T03:23:23.544Z,101419.48
2019-04-11T03:26:14.209Z,101416.20
2019-04-11T03:29:06.286Z,101420.19
2019-04-11T03:32:40.171Z,101420.06
2019-04-11T03:38:05.825Z,101421.99
2019-04-11T03:40:50.512Z,101422.50
2019-04-11T03:43:36.684Z,101430.17
2019-04-11T03:46:33.920Z,101432.82
2019-04-11T03:49:21.022Z,101430.66
2019-04-11T03:52:01.378Z,101430.77
2019-04-11T03:54:54.137Z,101432.51
2019-04-11T03:57:47.053Z,101432.06
2019-04-11T04:00:43.890Z,101434.78
2019-04-11T04:03:34.052Z,101440.29
2019-04-11T04:06:25.649Z,101444.16
2019-04-11T04:09:17.092Z,101450.13
2019-04-11T04:12:09.048Z,101445.03
2019-04-11T04:15:39.149Z,101454.88
2019-04-11T04:18:29.894Z,101455.31
2019-04-11T04:21:43.561Z,101463.91
2019-04-11T04:24:39.784Z,101473.25
2019-04-11T04:27:30.354Z,101468.22
2019-04-11T04:30:24.540Z,101467.31
2019-04-11T04:33:17.096Z,101479.75
2019-04-11T04:36:10.416Z,101482.28
2019-04-11T04:39:01.205Z,101481.45
2019-04-11T04:42:01.140Z,101489.95
2019-04-11T04:44:45.186Z,101485.70
2019-04-11T04:47:42.377Z,101494.67
2019-04-11T04:50:27.185Z,101499.83
2019-04-11T04:53:20.230Z,101505.43
2019-04-11T04:56:11.094Z,101503.22
2019-04-11T04:59:02.631Z,101508.73
2019-04-11T05:01:53.258Z,101504.91
2019-04-11T05:04:45.903Z,101513.48
2019-04-11T05:07:40.100Z,101512.19
2019-04-11T05:10:32.599Z,101519.08
2019-04-11T05:13:23.936Z,101519.10
2019-04-11T05:16:17.602Z,101519.09
2019-04-11T05:19:04.922Z,101525.53
2019-04-11T05:21:57.574Z,101522.94
2019-04-11T05:24:47.504Z,101527.19
2019-04-11T05:27:37.850Z,101531.85
2019-04-11T05:30:27.530Z,101532.72
2019-04-11T05:33:18.739Z,101535.75
2019-04-11T05:36:08.574Z,101537.38
2019-04-11T05:38:58.364Z,101543.31
2019-04-11T05:41:51.423Z,101543.31
2019-04-11T05:44:43.257Z,101549.29
2019-04-11T05:47:35.334Z,101545.41
2019-04-11T05:50:36.167Z,101552.70
2019-04-11T05:53:27.920Z,101550.02
2019-04-11T05:56:22.264Z,101546.57
2019-04-11T05:59:18.889Z,101551.21
2019-04-11T06:02:21.507Z,101555.42
2019-04-11T06:05:31.238Z,101559.73
2019-04-11T06:08:24.133Z,101557.06
2019-04-11T06:11:24.184Z,101561.30
2019-04-11T06:14:22.895Z,101562.90
2019-04-11T06:17:15.878Z,101577.25
2019-04-11T06:20:27.171Z,101570.17
2019-04-11T06:23:56.792Z,101563.62
2019-04-11T06:27:11.315Z,101566.52
2019-04-11T06:30:30.491Z,101577.12
2019-04-11T06:33:27.093Z,101572.02
2019-04-11T06:36:43.307Z,101579.88
2019-04-11T06:39:37.922Z,101587.93
2019-04-11T06:42:37.257Z,101593.25
2019-04-11T06:45:58.623Z,101588.52
2019-04-11T06:49:00.276Z,101594.23
2019-04-11T06:51:56.746Z,101590.37
2019-04-11T06:55:10.855Z,101588.16
2019-04-11T06:58:06.689Z,101593.16
2019-04-11T07:01:01.936Z,101596.39
2019-04-11T07:03:55.337Z,101601.05
2019-04-11T07:06:48.176Z,101597.61
2019-04-11T07:09:49.099Z,101606.05
2019-04-11T07:13:00.658Z,101603.30
2019-04-11T07:15:54.861Z,101608.80
2019-04-11T07:19:02.874Z,101602.35
2019-04-11T07:21:53.463Z,101604.48
2019-04-11T07:25:02.291Z,101610.50
2019-04-11T07:28:10.034Z,101605.93
2019-04-11T07:31:19.258Z,101617.73
2019-04-11T07:34:39.652Z,101618.52
2019-04-11T07:37:42.851Z,101615.66
2019-04-11T07:40:51.978Z,101617.98
2019-04-11T07:43:43.162Z,101622.97
2019-04-11T07:46:49.499Z,101631.80
2019-04-11T07:49:40.882Z,101630.77
2019-04-11T07:52:34.554Z,101620.77
2019-04-11T07:55:25.895Z,101632.25
2019-04-11T07:58:24.010Z,101632.84
2019-04-11T08:01:38.361Z,101634.22
2019-04-11T08:04:47.272Z,101634.64
2019-04-11T08:07:55.272Z,101635.92
2019-04-11T08:10:53.026Z,101638.97
2019-04-11T08:14:02.248Z,101641.47
2019-04-11T08:17:28.095Z,101648.31
2019-04-11T08:20:29.086Z,101641.24
2019-04-11T08:23:19.764Z,101644.95
2019-04-11T08:26:39.511Z,101643.23
2019-04-11T08:29:30.553Z,101645.91
2019-04-11T08:32:40.129Z,101654.53
2019-04-11T08:35:53.474Z,101651.63
2019-04-11T08:38:46.473Z,101652.34
2019-04-11T08:41:56.982Z,101660.33
2019-04-11T08:44:48.126Z,101655.51
2019-04-11T08:47:52.676Z,101654.40
2019-04-11T08:50:44.923Z,101662.64
2019-04-11T08:53:55.020Z,101658.27
2019-04-11T08:56:47.366Z,101665.28
2019-04-11T09:00:14.057Z,101660.85
2019-04-11T09:03:18.363Z,101659.38
2019-04-11T09:06:12.405Z,101654.84
2019-04-11T09:09:20.968Z,101656.08
2019-04-11T09:12:14.287Z,101650.95
2019-04-11T09:15:37.057Z,101648.09
2019-04-11T09:18:28.062Z,101648.55
2019-04-11T09:21:36.151Z,101648.94
2019-04-11T09:24:41.221Z,101646.47
2019-04-11T09:27:55.497Z,101652.45
2019-04-11T09:31:12.181Z,101648.72
2019-04-11T09:34:21.777Z,101646.73
2019-04-11T09:37:25.359Z,101640.75
2019-04-11T09:40:37.632Z,101630.05
2019-04-11T09:43:31.766Z,101632.00
2019-04-11T09:46:34.485Z,101644.69
2019-04-11T09:49:31.072Z,101636.38
2019-04-11T09:52:29.020Z,101637.85
2019-04-11T09:55:39.588Z,101636.95
2019-04-11T09:58:29.599Z,101628.64
2019-04-11T10:01:40.791Z,101638.72
2019-04-11T10:04:33.925Z,101639.63
2019-04-11T10:07:33.529Z,101635.20
2019-04-11T10:10:46.552Z,101645.30
2019-04-11T10:13:55.913Z,101642.52
2019-04-11T10:17:04.552Z,101638.42
2019-04-11T10:20:00.864Z,101639.12
2019-04-11T10:23:12.946Z,101641.00
2019-04-11T10:26:04.454Z,101646.23
2019-04-11T10:29:13.441Z,101644.25
2019-04-11T10:32:03.463Z,101644.58
2019-04-11T10:35:30.362Z,101645.12
2019-04-11T10:38:20.522Z,101643.66
2019-04-11T10:41:32.664Z,101638.44
2019-04-11T10:44:42.304Z,101643.44
2019-04-11T10:47:33.724Z,101641.69
2019-04-11T10:50:50.683Z,101630.73
2019-04-11T10:53:43.769Z,101641.15
2019-04-11T10:56:45.924Z,101637.39
2019-04-11T10:59:36.435Z,101638.62
2019-04-11T11:03:02.008Z,101650.84
2019-04-11T11:05:55.506Z,101636.97
2019-04-11T11:08:57.563Z,101640.30
2019-04-11T11:11:59.359Z,101635.52
2019-04-11T11:15:14.000Z,101648.80
2019-04-11T11:18:53.989Z,101648.69
2019-04-11T11:21:30.010Z,101644.59
2019-04-11T11:24:44.207Z,101641.81
2019-04-11T11:27:36.181Z,101644.84
2019-04-11T11:30:47.301Z,101645.38
2019-04-11T11:33:38.572Z,101652.92
2019-04-11T11:37:07.055Z,101642.70
2019-04-11T11:40:16.576Z,101645.84
2019-04-11T11:43:30.986Z,101652.48
2019-04-11T11:46:38.308Z,101655.11
2019-04-11T11:49:42.425Z,101650.37
2019-04-11T11:52:49.542Z,101651.11
2019-04-11T11:55:41.162Z,101656.77
2019-04-11T11:58:56.164Z,101659.41
2019-04-11T12:01:50.949Z,101679.48
2019-04-11T12:04:56.073Z,101668.27
2019-04-11T12:08:00.411Z,101663.23
2019-04-11T12:11:04.270Z,101664.43
2019-04-11T12:14:18.604Z,101663.94
2019-04-11T12:17:23.148Z,101667.56
2019-04-11T12:20:20.833Z,101659.27
2019-04-11T12:23:29.515Z,101652.71
2019-04-11T12:26:20.295Z,101656.89
2019-04-11T12:29:30.618Z,101657.20
2019-04-11T12:32:25.332Z,101653.53
2019-04-11T12:35:34.130Z,101652.23
2019-04-11T12:38:54.668Z,101661.03
2019-04-11T12:42:15.387Z,101651.27
2019-04-11T12:45:23.981Z,101655.24
2019-04-11T12:48:13.788Z,101663.91
2019-04-11T12:51:34.272Z,101652.71
2019-04-11T12:54:28.912Z,101662.63
2019-04-11T12:57:37.620Z,101647.65
2019-04-11T13:00:50.518Z,101656.36
2019-04-11T13:03:58.279Z,101653.30
2019-04-11T13:07:22.164Z,101654.27
2019-04-11T13:10:31.875Z,101650.06
2019-04-11T13:13:30.660Z,101655.80
2019-04-11T13:16:21.551Z,101653.48
2019-04-11T13:19:28.737Z,101660.09
2019-04-11T13:22:22.341Z,101653.45
2019-04-11T13:25:35.594Z,101660.14
2019-04-11T13:28:29.093Z,101650.39
2019-04-11T13:31:36.651Z,101649.42
2019-04-11T13:34:26.805Z,101651.67
2019-04-11T13:37:30.899Z,101653.44
2019-04-11T13:40:36.471Z,101649.97
2019-04-11T13:43:31.833Z,101646.97
2019-04-11T13:46:47.142Z,101644.31
2019-04-11T13:49:43.146Z,101647.13
2019-04-11T13:52:54.869Z,101645.08
2019-04-11T13:55:44.749Z,101650.99
2019-04-11T13:58:55.395Z,101642.98
2019-04-11T14:01:46.452Z,101636.27
2019-04-11T14:04:43.025Z,101636.25
2019-04-11T14:07:34.150Z,101639.41
2019-04-11T14:10:25.327Z,101641.66
2019-04-11T14:13:17.265Z,101639.80
2019-04-11T14:16:10.965Z,101635.39
2019-04-11T14:19:21.051Z,101640.45
2019-04-11T14:22:13.745Z,101634.61
2019-04-11T14:25:33.953Z,101636.48
2019-04-11T14:28:24.587Z,101637.63
2019-04-11T14:31:37.344Z,101648.50
2019-04-11T14:34:45.706Z,101647.41
2019-04-11T14:37:51.515Z,101649.83
2019-04-11T14:41:09.857Z,101646.30
2019-04-11T14:44:02.952Z,101654.07
2019-04-11T14:47:14.210Z,101648.92
2019-04-11T14:50:04.394Z,101654.06
2019-04-11T14:53:25.095Z,101649.80
2019-04-11T14:56:16.935Z,101651.17
2019-04-11T14:59:15.664Z,101649.92
2019-04-11T15:02:13.140Z,101649.34
2019-04-11T15:05:13.661Z,101646.03
2019-04-11T15:08:01.148Z,101644.03
2019-04-11T15:11:10.066Z,101647.75
2019-04-11T15:14:09.358Z,101651.33
2019-04-11T15:17:30.537Z,101643.80
2019-04-11T15:20:55.484Z,101647.48
2019-04-11T15:23:45.422Z,101642.77
2019-04-11T15:26:52.857Z,101640.19
2019-04-11T15:29:45.935Z,101634.53
2019-04-11T15:32:59.933Z,101640.52
2019-04-11T15:35:50.545Z,101639.69
2019-04-11T15:39:02.214Z,101636.76
2019-04-11T15:42:01.437Z,101638.96
2019-04-11T15:45:04.458Z,101647.19
2019-04-11T15:48:10.605Z,101638.99
2019-04-11T15:51:35.114Z,101640.81
2019-04-11T15:54:44.076Z,101644.13
2019-04-11T15:57:46.639Z,101637.84
2019-04-11T16:01:04.756Z,101645.34
2019-04-11T16:04:02.412Z,101655.81
2019-04-11T16:07:11.245Z,101648.16
2019-04-11T16:10:00.826Z,101646.48
2019-04-11T16:12:57.315Z,101646.45
2019-04-11T16:15:50.458Z,101649.55
2019-04-11T16:18:59.478Z,101653.74
2019-04-11T16:22:14.520Z,101654.72
2019-04-11T16:25:08.695Z,101656.00
2019-04-11T16:28:16.269Z,101659.13
2019-04-11T16:31:09.474Z,101656.62
2019-04-11T16:34:16.107Z,101656.94
2019-04-11T16:37:08.049Z,101655.84
2019-04-11T16:40:16.493Z,101666.67
2019-04-11T16:43:09.316Z,101658.81
2019-04-11T16:46:19.881Z,101660.23
2019-04-11T16:49:10.479Z,101662.78
2019-04-11T16:52:01.655Z,101663.23
2019-04-11T16:54:52.455Z,101661.55
2019-04-11T16:57:44.335Z,101662.78
2019-04-11T17:00:35.307Z,101661.94
2019-04-11T17:03:25.689Z,101661.94
2019-04-11T17:06:33.244Z,101667.37
2019-04-11T17:09:34.103Z,101667.91
2019-04-11T17:12:26.680Z,101668.24
2019-04-11T17:15:17.207Z,101672.47
2019-04-11T17:18:09.540Z,101676.70
2019-04-11T17:20:59.741Z,101679.79
2019-04-11T17:23:49.773Z,101681.91
2019-04-11T17:26:39.921Z,101681.39
2019-04-11T17:29:31.338Z,101683.55
2019-04-11T17:32:23.617Z,101685.35
2019-04-11T17:35:15.356Z,101690.20
2019-04-11T17:38:08.094Z,101689.11
2019-04-11T17:40:59.559Z,101687.09
2019-04-11T17:43:51.605Z,101690.17
2019-04-11T17:46:45.064Z,101691.31
2019-04-11T17:49:36.976Z,101701.63
2019-04-11T17:52:29.107Z,101700.70
2019-04-11T17:55:18.792Z,101704.16
2019-04-11T17:58:09.066Z,101710.45
2019-04-11T18:01:05.181Z,101714.71
2019-04-11T18:03:53.242Z,101719.78
2019-04-11T18:06:46.999Z,101726.59
2019-04-11T18:09:35.887Z,101725.67
2019-04-11T18:12:28.157Z,101723.08
2019-04-11T18:15:20.213Z,101723.70
2019-04-11T18:18:12.820Z,101727.63
2019-04-11T18:21:06.995Z,101731.40
2019-04-11T18:23:55.272Z,101731.42
2019-04-11T18:26:45.498Z,101735.59
2019-04-11T18:29:38.835Z,101739.55
2019-04-11T18:32:28.540Z,101742.59
2019-04-11T18:35:19.784Z,101745.98
2019-04-11T18:38:09.925Z,101752.16
2019-04-11T18:41:02.321Z,101754.44
2019-04-11T18:43:53.467Z,101754.50
2019-04-11T18:46:44.011Z,101758.83
2019-04-11T18:49:36.902Z,101758.44
2019-04-11T18:52:29.005Z,101763.59
2019-04-11T18:55:23.504Z,101765.09
2019-04-11T18:58:14.402Z,101760.77
2019-04-11T19:01:09.063Z,101765.47
2019-04-11T19:03:59.532Z,101763.42
2019-04-11T19:06:52.415Z,101766.48
2019-04-11T19:09:43.876Z,101773.86
2019-04-11T19:12:36.672Z,101768.59
2019-04-11T19:15:26.786Z,101772.02
2019-04-11T19:18:17.308Z,101777.14
2019-04-11T19:21:11.860Z,101775.39
2019-04-11T19:24:02.054Z,101775.51
2019-04-11T19:26:53.415Z,101784.93
2019-04-11T19:29:44.086Z,101778.57
2019-04-11T19:32:35.504Z,101782.88
2019-04-11T19:35:27.264Z,101782.83
2019-04-11T19:38:43.405Z,101777.37
2019-04-11T19:41:33.703Z,101776.53
2019-04-11T19:44:23.624Z,101773.88
2019-04-11T19:47:13.846Z,101779.08
2019-04-11T19:50:06.936Z,101775.66
2019-04-11T19:52:56.995Z,101771.89
2019-04-11T19:56:00.458Z,101776.14
2019-04-11T19:58:51.592Z,101779.16
2019-04-11T20:01:43.173Z,101776.64
2019-04-11T20:04:35.020Z,101781.81
2019-04-11T20:07:25.146Z,101781.00
2019-04-11T20:10:16.119Z,101781.86
2019-04-11T20:13:06.855Z,101786.95
2019-04-11T20:15:57.653Z,101790.00
2019-04-11T20:18:51.388Z,101789.66
2019-04-11T20:21:39.887Z,101791.38
2019-04-11T20:24:33.107Z,101794.44
2019-04-11T20:27:22.673Z,101798.30
2019-04-11T20:30:13.513Z,101798.83
2019-04-11T20:33:08.465Z,101803.93
2019-04-11T20:35:59.537Z,101800.47
2019-04-11T20:38:49.937Z,101792.76
2019-04-11T20:41:39.766Z,101799.67
2019-04-11T20:44:30.731Z,101795.81
2019-04-11T20:47:20.630Z,101792.84
2019-04-11T20:50:10.600Z,101791.93
2019-04-11T20:53:11.970Z,101801.81
2019-04-11T20:55:54.154Z,101789.47
2019-04-11T20:58:44.494Z,101790.73
2019-04-11T21:01:35.209Z,101793.30
2019-04-11T21:04:27.241Z,101798.10
2019-04-11T21:07:18.413Z,101801.41
2019-04-11T21:10:10.061Z,101798.90
2019-04-11T21:13:00.044Z,101807.43
2019-04-11T21:15:54.171Z,101796.33
2019-04-11T21:18:45.586Z,101792.87
2019-04-11T21:21:35.449Z,101791.23
2019-04-11T21:24:25.657Z,101795.09
2019-04-11T21:27:15.819Z,101792.91
2019-04-11T21:30:05.856Z,101788.64
2019-04-11T21:33:01.159Z,101798.52
2019-04-11T21:35:50.501Z,101795.95
2019-04-11T21:38:40.550Z,101792.59
2019-04-11T21:41:30.781Z,101794.70
2019-04-11T21:44:21.088Z,101792.23
2019-04-11T21:47:13.343Z,101791.73
2019-04-11T21:50:09.142Z,101800.29
2019-04-11T21:52:57.896Z,101798.20
2019-04-11T21:55:48.373Z,101796.88
2019-04-11T21:58:39.383Z,101804.16
2019-04-11T22:01:29.513Z,101807.58
2019-04-11T22:04:19.388Z,101805.48
2019-04-11T22:07:09.576Z,101806.73
2019-04-11T22:10:00.618Z,101801.16
2019-04-11T22:12:49.971Z,101799.89
2019-04-11T22:15:42.453Z,101797.76
2019-04-11T22:18:32.902Z,101800.77
2019-04-11T22:21:22.306Z,101805.48
2019-04-11T22:24:12.477Z,101807.61
2019-04-11T22:27:02.222Z,101803.78
2019-04-11T22:29:54.973Z,101801.64
2019-04-11T22:32:46.876Z,101795.66
2019-04-11T22:35:39.186Z,101799.53
2019-04-11T22:38:31.060Z,101806.00
2019-04-11T22:41:20.365Z,101806.80
2019-04-11T22:44:10.600Z,101807.25
2019-04-11T22:47:00.810Z,101811.12
2019-04-11T22:49:50.758Z,101813.25
2019-04-11T22:52:42.323Z,101811.59
2019-04-11T22:55:32.526Z,101809.43
2019-04-11T22:58:22.483Z,101806.05
2019-04-11T23:01:16.584Z,101808.59
2019-04-11T23:04:05.940Z,101809.91
2019-04-11T23:06:55.658Z,101807.31
2019-04-11T23:09:48.767Z,101808.16
2019-04-11T23:12:37.130Z,101810.66
2019-04-11T23:15:26.766Z,101813.67
2019-04-11T23:18:18.735Z,101812.42
2019-04-11T23:21:09.284Z,101807.30
2019-04-11T23:24:11.799Z,101806.84
2019-04-11T23:26:56.701Z,101806.89
2019-04-11T23:29:48.550Z,101803.45
2019-04-11T23:32:38.195Z,101803.02
2019-04-11T23:35:29.086Z,101800.45
2019-04-11T23:38:23.611Z,101803.45
2019-04-11T23:41:11.501Z,101806.02
2019-04-11T23:44:01.899Z,101804.36
2019-04-11T23:46:52.717Z,101801.37
2019-04-11T23:49:43.677Z,101803.90
2019-04-11T23:52:33.158Z,101806.87
2019-04-11T23:55:25.174Z,101806.92
2019-04-11T23:58:16.431Z,101801.44
